sensor_id;sensor_type;location;lat;lon;timestamp;pressure;altitude;pressure_sealevel;temperature;humidity
70930;BME280;58588;48.102;19.682;2022-10-16T00:01:51;99952.50;;;12.32;100.00
70930;BME280;58588;48.102;19.682;2022-10-16T00:04:55;99934.53;;;12.25;100.00
70930;BME280;58588;48.102;19.682;2022-10-16T00:07:57;99950.81;;;12.46;100.00
70930;BME280;58588;48.102;19.682;2022-10-16T00:11:00;99952.78;;;12.52;100.00
70930;BME280;58588;48.102;19.682;2022-10-16T00:14:03;99943.06;;;12.58;100.00
70930;BME280;58588;48.102;19.682;2022-10-16T00:17:06;99945.22;;;12.63;100.00
70930;BME280;58588;48.102;19.682;2022-10-16T00:20:09;99949.59;;;12.64;100.00
70930;BME280;58588;48.102;19.682;2022-10-16T00:23:11;99957.63;;;12.57;100.00
70930;BME280;58588;48.102;19.682;2022-10-16T00:26:15;99951.59;;;12.55;100.00
70930;BME280;58588;48.102;19.682;2022-10-16T00:29:17;99957.28;;;12.60;100.00
70930;BME280;58588;48.102;19.682;2022-10-16T00:32:19;99950.78;;;12.76;100.00
70930;BME280;58588;48.102;19.682;2022-10-16T00:35:23;99949.69;;;12.70;100.00
70930;BME280;58588;48.102;19.682;2022-10-16T00:38:25;99944.63;;;12.82;100.00
70930;BME280;58588;48.102;19.682;2022-10-16T00:41:27;99957.13;;;12.83;100.00
70930;BME280;58588;48.102;19.682;2022-10-16T00:44:45;99956.69;;;12.79;100.00
70930;BME280;58588;48.102;19.682;2022-10-16T00:47:48;99956.25;;;12.61;100.00
70930;BME280;58588;48.102;19.682;2022-10-16T00:50:53;99961.94;;;12.66;100.00
70930;BME280;58588;48.102;19.682;2022-10-16T00:53:56;99970.78;;;12.75;100.00
70930;BME280;58588;48.102;19.682;2022-10-16T00:57:00;99955.94;;;12.85;100.00
70930;BME280;58588;48.102;19.682;2022-10-16T01:00:05;99966.94;;;12.84;100.00
70930;BME280;58588;48.102;19.682;2022-10-16T01:03:27;99973.13;;;12.78;100.00
70930;BME280;58588;48.102;19.682;2022-10-16T01:06:36;99987.00;;;12.90;100.00
70930;BME280;58588;48.102;19.682;2022-10-16T01:09:50;99981.75;;;13.03;100.00
70930;BME280;58588;48.102;19.682;2022-10-16T01:12:58;99986.88;;;12.98;100.00
70930;BME280;58588;48.102;19.682;2022-10-16T01:16:05;99974.66;;;13.02;100.00
70930;BME280;58588;48.102;19.682;2022-10-16T01:19:13;99975.78;;;13.07;100.00
70930;BME280;58588;48.102;19.682;2022-10-16T01:22:20;99974.34;;;13.11;100.00
70930;BME280;58588;48.102;19.682;2022-10-16T01:25:36;99976.41;;;13.09;100.00
70930;BME280;58588;48.102;19.682;2022-10-16T01:28:48;99976.00;;;13.12;100.00
70930;BME280;58588;48.102;19.682;2022-10-16T01:31:56;99982.88;;;12.94;100.00
70930;BME280;58588;48.102;19.682;2022-10-16T01:35:02;99978.00;;;12.89;100.00
70930;BME280;58588;48.102;19.682;2022-10-16T01:38:09;99988.59;;;12.69;100.00
70930;BME280;58588;48.102;19.682;2022-10-16T01:41:15;99985.88;;;12.69;100.00
70930;BME280;58588;48.102;19.682;2022-10-16T01:44:24;99990.47;;;12.69;100.00
70930;BME280;58588;48.102;19.682;2022-10-16T01:47:30;99992.31;;;12.68;100.00
70930;BME280;58588;48.102;19.682;2022-10-16T01:50:35;99997.81;;;12.75;100.00
70930;BME280;58588;48.102;19.682;2022-10-16T01:53:40;99999.69;;;12.74;100.00
70930;BME280;58588;48.102;19.682;2022-10-16T01:56:43;99998.84;;;12.74;100.00
70930;BME280;58588;48.102;19.682;2022-10-16T01:59:52;99997.19;;;12.73;100.00
70930;BME280;58588;48.102;19.682;2022-10-16T02:02:57;99993.16;;;12.83;100.00
70930;BME280;58588;48.102;19.682;2022-10-16T02:05:59;99996.97;;;12.89;100.00
70930;BME280;58588;48.102;19.682;2022-10-16T02:09:02;99999.66;;;12.89;100.00
70930;BME280;58588;48.102;19.682;2022-10-16T02:12:10;99999.31;;;12.92;100.00
70930;BME280;58588;48.102;19.682;2022-10-16T02:15:16;100000.13;;;12.93;100.00
70930;BME280;58588;48.102;19.682;2022-10-16T02:18:18;100005.34;;;12.94;100.00
70930;BME280;58588;48.102;19.682;2022-10-16T02:21:24;100002.75;;;12.86;100.00
70930;BME280;58588;48.102;19.682;2022-10-16T02:24:30;100010.03;;;12.71;100.00
70930;BME280;58588;48.102;19.682;2022-10-16T02:27:39;100015.25;;;12.57;100.00
70930;BME280;58588;48.102;19.682;2022-10-16T02:30:46;100013.97;;;12.68;100.00
70930;BME280;58588;48.102;19.682;2022-10-16T02:33:51;100020.88;;;12.56;100.00
70930;BME280;58588;48.102;19.682;2022-10-16T02:36:54;100006.69;;;12.54;100.00
70930;BME280;58588;48.102;19.682;2022-10-16T02:39:58;100019.44;;;12.45;100.00
70930;BME280;58588;48.102;19.682;2022-10-16T02:43:00;100017.28;;;12.41;100.00
70930;BME280;58588;48.102;19.682;2022-10-16T02:46:06;100023.28;;;12.36;100.00
70930;BME280;58588;48.102;19.682;2022-10-16T02:49:08;100018.66;;;12.22;100.00
70930;BME280;58588;48.102;19.682;2022-10-16T02:52:10;100023.88;;;12.09;100.00
70930;BME280;58588;48.102;19.682;2022-10-16T02:55:12;100033.31;;;12.13;100.00
70930;BME280;58588;48.102;19.682;2022-10-16T02:58:14;100035.28;;;11.96;100.00
70930;BME280;58588;48.102;19.682;2022-10-16T03:01:21;100033.06;;;11.99;100.00
70930;BME280;58588;48.102;19.682;2022-10-16T03:04:23;100033.78;;;11.70;100.00
70930;BME280;58588;48.102;19.682;2022-10-16T03:07:25;100043.06;;;11.68;100.00
70930;BME280;58588;48.102;19.682;2022-10-16T03:10:27;100036.66;;;11.46;100.00
70930;BME280;58588;48.102;19.682;2022-10-16T03:13:29;100041.72;;;11.41;100.00
70930;BME280;58588;48.102;19.682;2022-10-16T03:16:33;100035.50;;;11.40;100.00
70930;BME280;58588;48.102;19.682;2022-10-16T03:19:35;100033.00;;;11.31;100.00
70930;BME280;58588;48.102;19.682;2022-10-16T03:22:37;100035.72;;;11.31;100.00
70930;BME280;58588;48.102;19.682;2022-10-16T03:25:39;100035.75;;;11.22;100.00
70930;BME280;58588;48.102;19.682;2022-10-16T03:28:41;100035.47;;;11.09;100.00
70930;BME280;58588;48.102;19.682;2022-10-16T03:31:44;100042.78;;;11.01;100.00
70930;BME280;58588;48.102;19.682;2022-10-16T03:34:48;100048.53;;;10.97;100.00
70930;BME280;58588;48.102;19.682;2022-10-16T03:37:51;100052.97;;;10.82;100.00
70930;BME280;58588;48.102;19.682;2022-10-16T03:40:53;100043.03;;;10.75;100.00
70930;BME280;58588;48.102;19.682;2022-10-16T03:43:55;100056.38;;;10.68;100.00
70930;BME280;58588;48.102;19.682;2022-10-16T03:46:58;100059.25;;;10.58;100.00
70930;BME280;58588;48.102;19.682;2022-10-16T03:50:00;100051.19;;;10.42;100.00
70930;BME280;58588;48.102;19.682;2022-10-16T03:53:03;100065.38;;;10.44;100.00
70930;BME280;58588;48.102;19.682;2022-10-16T03:56:05;100069.22;;;10.41;100.00
70930;BME280;58588;48.102;19.682;2022-10-16T03:59:07;100070.75;;;10.28;100.00
70930;BME280;58588;48.102;19.682;2022-10-16T04:02:11;100080.00;;;10.25;100.00
70930;BME280;58588;48.102;19.682;2022-10-16T04:05:13;100091.44;;;10.11;100.00
70930;BME280;58588;48.102;19.682;2022-10-16T04:08:15;100093.13;;;10.04;100.00
70930;BME280;58588;48.102;19.682;2022-10-16T04:11:17;100092.63;;;10.00;100.00
70930;BME280;58588;48.102;19.682;2022-10-16T04:14:19;100086.88;;;9.95;100.00
70930;BME280;58588;48.102;19.682;2022-10-16T04:17:22;100102.03;;;9.88;100.00
70930;BME280;58588;48.102;19.682;2022-10-16T04:20:24;100095.81;;;9.79;100.00
70930;BME280;58588;48.102;19.682;2022-10-16T04:23:26;100097.94;;;9.59;100.00
70930;BME280;58588;48.102;19.682;2022-10-16T04:26:29;100097.31;;;9.65;100.00
70930;BME280;58588;48.102;19.682;2022-10-16T04:29:31;100098.81;;;9.60;100.00
70930;BME280;58588;48.102;19.682;2022-10-16T04:32:34;100096.91;;;9.52;100.00
70930;BME280;58588;48.102;19.682;2022-10-16T04:35:36;100091.03;;;9.57;100.00
70930;BME280;58588;48.102;19.682;2022-10-16T04:38:38;100086.50;;;9.49;100.00
70930;BME280;58588;48.102;19.682;2022-10-16T04:41:40;100104.44;;;9.41;100.00
70930;BME280;58588;48.102;19.682;2022-10-16T04:44:42;100101.00;;;9.22;100.00
70930;BME280;58588;48.102;19.682;2022-10-16T04:47:46;100099.44;;;9.11;100.00
70930;BME280;58588;48.102;19.682;2022-10-16T04:50:48;100097.56;;;9.04;100.00
70930;BME280;58588;48.102;19.682;2022-10-16T04:53:50;100100.59;;;9.01;100.00
70930;BME280;58588;48.102;19.682;2022-10-16T04:56:52;100103.97;;;9.03;100.00
70930;BME280;58588;48.102;19.682;2022-10-16T04:59:54;100114.19;;;8.99;100.00
70930;BME280;58588;48.102;19.682;2022-10-16T05:02:57;100112.31;;;8.92;100.00
70930;BME280;58588;48.102;19.682;2022-10-16T05:06:01;100119.88;;;8.88;100.00
70930;BME280;58588;48.102;19.682;2022-10-16T05:09:04;100131.28;;;8.90;100.00
70930;BME280;58588;48.102;19.682;2022-10-16T05:12:06;100125.00;;;8.81;100.00
70930;BME280;58588;48.102;19.682;2022-10-16T05:15:09;100122.19;;;8.83;100.00
70930;BME280;58588;48.102;19.682;2022-10-16T05:18:13;100128.00;;;8.70;100.00
70930;BME280;58588;48.102;19.682;2022-10-16T05:21:15;100134.72;;;8.74;100.00
70930;BME280;58588;48.102;19.682;2022-10-16T05:24:19;100133.03;;;8.73;100.00
70930;BME280;58588;48.102;19.682;2022-10-16T05:27:21;100147.66;;;8.71;100.00
70930;BME280;58588;48.102;19.682;2022-10-16T05:30:23;100133.16;;;8.64;100.00
70930;BME280;58588;48.102;19.682;2022-10-16T05:33:26;100130.50;;;8.72;100.00
70930;BME280;58588;48.102;19.682;2022-10-16T05:36:28;100150.59;;;8.85;100.00
70930;BME280;58588;48.102;19.682;2022-10-16T05:39:30;100147.91;;;8.85;100.00
70930;BME280;58588;48.102;19.682;2022-10-16T05:42:32;100153.28;;;8.85;100.00
70930;BME280;58588;48.102;19.682;2022-10-16T05:45:34;100168.47;;;8.95;100.00
70930;BME280;58588;48.102;19.682;2022-10-16T05:48:38;100154.22;;;9.02;100.00
70930;BME280;58588;48.102;19.682;2022-10-16T05:51:40;100163.88;;;9.13;100.00
70930;BME280;58588;48.102;19.682;2022-10-16T05:54:42;100167.97;;;9.25;100.00
70930;BME280;58588;48.102;19.682;2022-10-16T05:57:45;100176.72;;;9.27;100.00
70930;BME280;58588;48.102;19.682;2022-10-16T06:00:53;100179.13;;;9.38;100.00
70930;BME280;58588;48.102;19.682;2022-10-16T06:03:57;100180.28;;;9.36;100.00
70930;BME280;58588;48.102;19.682;2022-10-16T06:06:59;100177.81;;;9.43;100.00
70930;BME280;58588;48.102;19.682;2022-10-16T06:10:03;100177.47;;;9.46;100.00
70930;BME280;58588;48.102;19.682;2022-10-16T06:13:05;100195.81;;;9.50;100.00
70930;BME280;58588;48.102;19.682;2022-10-16T06:16:07;100188.59;;;9.59;100.00
70930;BME280;58588;48.102;19.682;2022-10-16T06:19:11;100202.13;;;9.67;100.00
70930;BME280;58588;48.102;19.682;2022-10-16T06:22:13;100200.47;;;9.74;100.00
70930;BME280;58588;48.102;19.682;2022-10-16T06:25:16;100208.06;;;9.95;100.00
70930;BME280;58588;48.102;19.682;2022-10-16T06:28:18;100191.91;;;9.95;100.00
70930;BME280;58588;48.102;19.682;2022-10-16T06:31:20;100190.78;;;10.06;100.00
70930;BME280;58588;48.102;19.682;2022-10-16T06:34:24;100204.41;;;10.12;100.00
70930;BME280;58588;48.102;19.682;2022-10-16T06:37:27;100209.56;;;10.32;100.00
70930;BME280;58588;48.102;19.682;2022-10-16T06:40:29;100211.06;;;10.34;100.00
70930;BME280;58588;48.102;19.682;2022-10-16T06:43:31;100210.25;;;10.58;100.00
70930;BME280;58588;48.102;19.682;2022-10-16T06:46:35;100214.63;;;10.76;100.00
70930;BME280;58588;48.102;19.682;2022-10-16T06:49:39;100219.81;;;10.85;100.00
70930;BME280;58588;48.102;19.682;2022-10-16T06:52:41;100222.03;;;10.98;100.00
70930;BME280;58588;48.102;19.682;2022-10-16T06:55:43;100223.19;;;11.12;100.00
70930;BME280;58588;48.102;19.682;2022-10-16T06:58:45;100232.25;;;11.27;100.00
70930;BME280;58588;48.102;19.682;2022-10-16T07:01:48;100236.25;;;11.47;100.00
70930;BME280;58588;48.102;19.682;2022-10-16T07:04:53;100244.50;;;11.54;100.00
70930;BME280;58588;48.102;19.682;2022-10-16T07:07:55;100234.16;;;11.66;100.00
70930;BME280;58588;48.102;19.682;2022-10-16T07:11:01;100231.88;;;11.94;100.00
70930;BME280;58588;48.102;19.682;2022-10-16T07:14:03;100239.28;;;12.00;100.00
70930;BME280;58588;48.102;19.682;2022-10-16T07:17:06;100235.16;;;12.35;100.00
70930;BME280;58588;48.102;19.682;2022-10-16T07:20:10;100228.72;;;12.67;100.00
70930;BME280;58588;48.102;19.682;2022-10-16T07:23:12;100233.53;;;12.95;100.00
70930;BME280;58588;48.102;19.682;2022-10-16T07:26:14;100232.34;;;12.97;100.00
70930;BME280;58588;48.102;19.682;2022-10-16T07:29:19;100236.19;;;13.18;100.00
70930;BME280;58588;48.102;19.682;2022-10-16T07:32:22;100250.63;;;13.33;100.00
70930;BME280;58588;48.102;19.682;2022-10-16T07:35:27;100246.97;;;13.55;100.00
70930;BME280;58588;48.102;19.682;2022-10-16T07:38:29;100245.41;;;13.76;100.00
70930;BME280;58588;48.102;19.682;2022-10-16T07:41:32;100268.19;;;14.11;100.00
70930;BME280;58588;48.102;19.682;2022-10-16T07:44:37;100262.41;;;13.99;100.00
70930;BME280;58588;48.102;19.682;2022-10-16T07:47:39;100252.06;;;14.24;100.00
70930;BME280;58588;48.102;19.682;2022-10-16T07:50:43;100263.56;;;14.62;100.00
70930;BME280;58588;48.102;19.682;2022-10-16T07:53:45;100260.28;;;14.88;100.00
70930;BME280;58588;48.102;19.682;2022-10-16T07:56:48;100275.91;;;15.08;100.00
70930;BME280;58588;48.102;19.682;2022-10-16T07:59:50;100278.81;;;15.34;100.00
70930;BME280;58588;48.102;19.682;2022-10-16T08:02:52;100285.78;;;15.43;100.00
70930;BME280;58588;48.102;19.682;2022-10-16T08:05:56;100282.19;;;15.64;100.00
70930;BME280;58588;48.102;19.682;2022-10-16T08:08:59;100266.66;;;15.93;100.00
70930;BME280;58588;48.102;19.682;2022-10-16T08:12:01;100280.44;;;15.85;91.31
70930;BME280;58588;48.102;19.682;2022-10-16T08:15:05;100282.13;;;16.33;96.62
70930;BME280;58588;48.102;19.682;2022-10-16T08:18:09;100292.72;;;16.76;90.98
70930;BME280;58588;48.102;19.682;2022-10-16T08:21:15;100287.97;;;17.05;80.24
70930;BME280;58588;48.102;19.682;2022-10-16T08:24:17;100295.91;;;17.20;81.77
70930;BME280;58588;48.102;19.682;2022-10-16T08:27:21;100311.41;;;17.79;87.96
70930;BME280;58588;48.102;19.682;2022-10-16T08:30:23;100298.13;;;18.09;82.79
70930;BME280;58588;48.102;19.682;2022-10-16T08:33:25;100292.91;;;18.01;79.73
70930;BME280;58588;48.102;19.682;2022-10-16T08:36:29;100297.31;;;18.02;77.97
70930;BME280;58588;48.102;19.682;2022-10-16T08:39:31;100294.13;;;18.05;79.89
70930;BME280;58588;48.102;19.682;2022-10-16T08:42:44;100300.47;;;17.92;76.71
70930;BME280;58588;48.102;19.682;2022-10-16T08:46:03;100301.53;;;17.91;79.63
70930;BME280;58588;48.102;19.682;2022-10-16T08:49:11;100299.59;;;18.11;77.72
70930;BME280;58588;48.102;19.682;2022-10-16T08:52:15;100289.06;;;18.15;78.08
70930;BME280;58588;48.102;19.682;2022-10-16T08:55:29;100291.44;;;17.98;81.11
70930;BME280;58588;48.102;19.682;2022-10-16T08:58:32;100283.59;;;18.15;78.83
70930;BME280;58588;48.102;19.682;2022-10-16T09:01:38;100284.75;;;17.94;79.60
70930;BME280;58588;48.102;19.682;2022-10-16T09:05:02;100280.25;;;18.19;79.04
70930;BME280;58588;48.102;19.682;2022-10-16T09:08:12;100288.81;;;18.23;78.43
70930;BME280;58588;48.102;19.682;2022-10-16T09:11:24;100289.22;;;18.27;77.57
70930;BME280;58588;48.102;19.682;2022-10-16T09:14:40;100282.91;;;18.33;76.18
70930;BME280;58588;48.102;19.682;2022-10-16T09:17:52;100289.63;;;18.37;73.37
70930;BME280;58588;48.102;19.682;2022-10-16T09:21:01;100294.94;;;18.18;74.82
70930;BME280;58588;48.102;19.682;2022-10-16T09:24:13;100300.66;;;18.55;73.03
70930;BME280;58588;48.102;19.682;2022-10-16T09:27:16;100299.44;;;18.89;74.52
70930;BME280;58588;48.102;19.682;2022-10-16T09:30:20;100312.59;;;18.99;73.10
70930;BME280;58588;48.102;19.682;2022-10-16T09:33:25;100307.97;;;18.99;72.06
70930;BME280;58588;48.102;19.682;2022-10-16T09:36:35;100315.56;;;18.59;74.71
70930;BME280;58588;48.102;19.682;2022-10-16T09:39:49;100322.66;;;18.74;71.07
70930;BME280;58588;48.102;19.682;2022-10-16T09:42:57;100322.00;;;19.10;73.31
70930;BME280;58588;48.102;19.682;2022-10-16T09:46:05;100328.13;;;19.30;67.59
70930;BME280;58588;48.102;19.682;2022-10-16T09:49:21;100347.38;;;19.73;68.67
70930;BME280;58588;48.102;19.682;2022-10-16T09:52:24;100344.47;;;19.68;65.73
70930;BME280;58588;48.102;19.682;2022-10-16T09:55:27;100343.44;;;19.88;63.44
70930;BME280;58588;48.102;19.682;2022-10-16T09:58:29;100345.75;;;20.09;65.08
70930;BME280;58588;48.102;19.682;2022-10-16T10:01:37;100340.22;;;19.72;64.00
70930;BME280;58588;48.102;19.682;2022-10-16T10:04:43;100350.00;;;20.05;62.55
70930;BME280;58588;48.102;19.682;2022-10-16T10:07:54;100353.97;;;20.09;63.09
70930;BME280;58588;48.102;19.682;2022-10-16T10:10:58;100343.97;;;19.96;65.19
70930;BME280;58588;48.102;19.682;2022-10-16T10:14:04;100351.06;;;20.04;63.85
70930;BME280;58588;48.102;19.682;2022-10-16T10:17:13;100349.97;;;19.87;63.98
70930;BME280;58588;48.102;19.682;2022-10-16T10:20:22;100345.97;;;20.08;62.40
70930;BME280;58588;48.102;19.682;2022-10-16T10:23:26;100344.13;;;20.38;60.24
70930;BME280;58588;48.102;19.682;2022-10-16T10:26:31;100346.63;;;20.46;60.26
70930;BME280;58588;48.102;19.682;2022-10-16T10:29:45;100335.56;;;20.53;60.77
70930;BME280;58588;48.102;19.682;2022-10-16T10:33:05;100333.09;;;20.45;63.76
70930;BME280;58588;48.102;19.682;2022-10-16T10:36:27;100332.94;;;20.76;60.36
70930;BME280;58588;48.102;19.682;2022-10-16T10:39:35;100328.53;;;20.57;59.65
70930;BME280;58588;48.102;19.682;2022-10-16T10:42:44;100317.91;;;20.49;61.62
70930;BME280;58588;48.102;19.682;2022-10-16T10:45:52;100323.84;;;20.64;59.77
70930;BME280;58588;48.102;19.682;2022-10-16T10:49:10;100310.88;;;20.71;60.78
70930;BME280;58588;48.102;19.682;2022-10-16T10:52:36;100312.78;;;20.71;60.98
70930;BME280;58588;48.102;19.682;2022-10-16T10:55:46;100310.19;;;20.76;61.12
70930;BME280;58588;48.102;19.682;2022-10-16T10:59:08;100302.97;;;20.93;56.88
70930;BME280;58588;48.102;19.682;2022-10-16T11:02:21;100298.09;;;20.65;58.38
70930;BME280;58588;48.102;19.682;2022-10-16T11:05:40;100304.75;;;20.57;59.00
70930;BME280;58588;48.102;19.682;2022-10-16T11:08:45;100301.09;;;20.64;62.73
70930;BME280;58588;48.102;19.682;2022-10-16T11:11:54;100294.34;;;20.48;62.44
70930;BME280;58588;48.102;19.682;2022-10-16T11:15:02;100291.34;;;20.31;59.01
70930;BME280;58588;48.102;19.682;2022-10-16T11:18:10;100291.75;;;20.16;64.06
70930;BME280;58588;48.102;19.682;2022-10-16T11:21:15;100294.69;;;20.33;63.32
70930;BME280;58588;48.102;19.682;2022-10-16T11:24:23;100288.25;;;20.27;62.07
70930;BME280;58588;48.102;19.682;2022-10-16T11:27:34;100286.88;;;20.18;64.12
70930;BME280;58588;48.102;19.682;2022-10-16T11:30:44;100292.88;;;20.27;65.51
70930;BME280;58588;48.102;19.682;2022-10-16T11:33:52;100284.81;;;20.50;58.99
70930;BME280;58588;48.102;19.682;2022-10-16T11:37:00;100291.38;;;20.91;59.55
70930;BME280;58588;48.102;19.682;2022-10-16T11:40:15;100277.75;;;20.73;59.56
70930;BME280;58588;48.102;19.682;2022-10-16T11:43:24;100278.72;;;20.48;62.65
70930;BME280;58588;48.102;19.682;2022-10-16T11:46:31;100282.97;;;20.74;61.68
70930;BME280;58588;48.102;19.682;2022-10-16T11:49:36;100282.34;;;21.02;58.87
70930;BME280;58588;48.102;19.682;2022-10-16T11:52:44;100282.09;;;20.62;61.11
70930;BME280;58588;48.102;19.682;2022-10-16T11:55:50;100278.34;;;20.75;59.08
70930;BME280;58588;48.102;19.682;2022-10-16T11:58:56;100271.69;;;20.71;64.20
70930;BME280;58588;48.102;19.682;2022-10-16T12:02:30;100271.84;;;21.41;56.37
70930;BME280;58588;48.102;19.682;2022-10-16T12:05:50;100274.25;;;22.25;60.69
70930;BME280;58588;48.102;19.682;2022-10-16T12:08:54;100260.69;;;21.95;56.81
70930;BME280;58588;48.102;19.682;2022-10-16T12:11:57;100284.44;;;22.01;56.32
70930;BME280;58588;48.102;19.682;2022-10-16T12:15:00;100282.28;;;22.55;54.99
70930;BME280;58588;48.102;19.682;2022-10-16T12:18:04;100277.84;;;23.28;51.36
70930;BME280;58588;48.102;19.682;2022-10-16T12:21:09;100289.75;;;23.50;47.11
70930;BME280;58588;48.102;19.682;2022-10-16T12:24:31;100294.25;;;23.90;49.22
70930;BME280;58588;48.102;19.682;2022-10-16T12:27:34;100288.03;;;24.21;48.51
70930;BME280;58588;48.102;19.682;2022-10-16T12:30:36;100282.22;;;24.18;44.19
70930;BME280;58588;48.102;19.682;2022-10-16T12:33:43;100282.63;;;24.75;45.70
70930;BME280;58588;48.102;19.682;2022-10-16T12:36:54;100291.97;;;23.87;45.99
70930;BME280;58588;48.102;19.682;2022-10-16T12:39:57;100291.63;;;23.28;47.09
70930;BME280;58588;48.102;19.682;2022-10-16T12:43:11;100283.59;;;23.09;48.05
70930;BME280;58588;48.102;19.682;2022-10-16T12:46:33;100294.25;;;22.77;49.02
70930;BME280;58588;48.102;19.682;2022-10-16T12:49:48;100303.56;;;22.19;48.87
70930;BME280;58588;48.102;19.682;2022-10-16T12:52:50;100287.19;;;22.01;49.34
70930;BME280;58588;48.102;19.682;2022-10-16T12:56:03;100297.94;;;22.02;53.63
70930;BME280;58588;48.102;19.682;2022-10-16T12:59:13;100291.78;;;21.72;51.52
70930;BME280;58588;48.102;19.682;2022-10-16T13:05:55;100302.38;;;21.56;53.23
70930;BME280;58588;48.102;19.682;2022-10-16T13:09:23;100305.13;;;21.56;51.61
70930;BME280;58588;48.102;19.682;2022-10-16T13:12:55;100301.66;;;21.61;51.68
70930;BME280;58588;48.102;19.682;2022-10-16T13:16:08;100305.81;;;21.99;51.35
70930;BME280;58588;48.102;19.682;2022-10-16T13:19:23;100310.72;;;22.20;52.47
70930;BME280;58588;48.102;19.682;2022-10-16T13:22:32;100308.69;;;22.15;51.28
70930;BME280;58588;48.102;19.682;2022-10-16T13:25:48;100306.78;;;22.56;49.68
70930;BME280;58588;48.102;19.682;2022-10-16T13:28:58;100305.03;;;22.67;49.95
70930;BME280;58588;48.102;19.682;2022-10-16T13:32:06;100304.84;;;22.28;52.42
70930;BME280;58588;48.102;19.682;2022-10-16T13:35:20;100320.75;;;22.14;51.46
70930;BME280;58588;48.102;19.682;2022-10-16T13:38:25;100307.88;;;21.80;53.82
70930;BME280;58588;48.102;19.682;2022-10-16T13:41:28;100317.41;;;22.12;53.11
70930;BME280;58588;48.102;19.682;2022-10-16T13:44:35;100314.75;;;21.94;56.76
70930;BME280;58588;48.102;19.682;2022-10-16T13:47:38;100307.94;;;22.32;54.55
70930;BME280;58588;48.102;19.682;2022-10-16T13:50:40;100310.44;;;22.74;52.26
70930;BME280;58588;48.102;19.682;2022-10-16T13:53:44;100318.09;;;22.60;50.35
70930;BME280;58588;48.102;19.682;2022-10-16T13:56:47;100322.28;;;21.99;52.94
70930;BME280;58588;48.102;19.682;2022-10-16T13:59:49;100312.25;;;22.04;56.08
70930;BME280;58588;48.102;19.682;2022-10-16T14:02:54;100314.41;;;22.02;54.62
70930;BME280;58588;48.102;19.682;2022-10-16T14:05:59;100313.81;;;21.65;55.18
70930;BME280;58588;48.102;19.682;2022-10-16T14:09:06;100314.88;;;21.52;55.84
70930;BME280;58588;48.102;19.682;2022-10-16T14:12:11;100314.31;;;21.50;56.65
70930;BME280;58588;48.102;19.682;2022-10-16T14:15:17;100312.63;;;22.08;54.57
70930;BME280;58588;48.102;19.682;2022-10-16T14:18:21;100310.06;;;22.70;52.17
70930;BME280;58588;48.102;19.682;2022-10-16T14:21:23;100304.78;;;23.26;50.99
70930;BME280;58588;48.102;19.682;2022-10-16T14:24:33;100307.09;;;23.17;49.96
70930;BME280;58588;48.102;19.682;2022-10-16T14:27:37;100308.50;;;24.25;48.48
70930;BME280;58588;48.102;19.682;2022-10-16T14:30:49;100323.44;;;24.29;46.80
70930;BME280;58588;48.102;19.682;2022-10-16T14:33:52;100324.63;;;23.95;47.49
70930;BME280;58588;48.102;19.682;2022-10-16T14:36:54;100318.97;;;23.34;47.45
70930;BME280;58588;48.102;19.682;2022-10-16T14:39:58;100312.13;;;22.63;51.01
70930;BME280;58588;48.102;19.682;2022-10-16T14:43:03;100315.25;;;21.91;53.29
70930;BME280;58588;48.102;19.682;2022-10-16T14:46:12;100321.81;;;21.55;53.25
70930;BME280;58588;48.102;19.682;2022-10-16T14:49:17;100317.97;;;20.91;55.61
70930;BME280;58588;48.102;19.682;2022-10-16T14:52:20;100320.22;;;20.52;57.56
70930;BME280;58588;48.102;19.682;2022-10-16T14:55:24;100328.47;;;20.27;58.36
70930;BME280;58588;48.102;19.682;2022-10-16T14:58:27;100327.63;;;20.08;59.59
70930;BME280;58588;48.102;19.682;2022-10-16T15:01:29;100323.81;;;19.91;62.35
70930;BME280;58588;48.102;19.682;2022-10-16T15:04:31;100340.78;;;19.81;62.22
70930;BME280;58588;48.102;19.682;2022-10-16T15:07:33;100338.72;;;19.95;63.48
70930;BME280;58588;48.102;19.682;2022-10-16T15:10:40;100340.88;;;20.11;65.55
70930;BME280;58588;48.102;19.682;2022-10-16T15:13:42;100334.25;;;20.00;63.16
70930;BME280;58588;48.102;19.682;2022-10-16T15:16:44;100340.31;;;20.02;62.87
70930;BME280;58588;48.102;19.682;2022-10-16T15:19:46;100337.38;;;20.04;63.84
70930;BME280;58588;48.102;19.682;2022-10-16T15:22:48;100334.56;;;19.92;60.39
70930;BME280;58588;48.102;19.682;2022-10-16T15:25:52;100331.94;;;19.79;64.11
70930;BME280;58588;48.102;19.682;2022-10-16T15:28:55;100330.66;;;19.32;73.52
70930;BME280;58588;48.102;19.682;2022-10-16T15:31:57;100343.69;;;19.30;69.71
70930;BME280;58588;48.102;19.682;2022-10-16T15:34:59;100337.28;;;19.17;73.43
70930;BME280;58588;48.102;19.682;2022-10-16T15:38:01;100351.50;;;18.94;74.07
70930;BME280;58588;48.102;19.682;2022-10-16T15:41:05;100339.50;;;18.57;79.52
70930;BME280;58588;48.102;19.682;2022-10-16T15:44:07;100358.50;;;18.32;85.63
70930;BME280;58588;48.102;19.682;2022-10-16T15:47:09;100356.28;;;18.03;86.71
70930;BME280;58588;48.102;19.682;2022-10-16T15:50:12;100355.06;;;17.85;90.01
70930;BME280;58588;48.102;19.682;2022-10-16T15:53:14;100359.25;;;17.42;97.30
70930;BME280;58588;48.102;19.682;2022-10-16T15:56:17;100366.78;;;17.33;98.10
70930;BME280;58588;48.102;19.682;2022-10-16T15:59:19;100365.31;;;17.24;98.70